sensor_id;sensor_type;location;lat;lon;timestamp;pressure;altitude;pressure_sealevel;temperature
33267;BMP180;19638;49.080;11.896;2023-04-06T00:00:29;96526.00;;;-1.30
33267;BMP180;19638;49.080;11.896;2023-04-06T00:04:32;96527.00;;;-1.40
33267;BMP180;19638;49.080;11.896;2023-04-06T00:08:35;96519.00;;;-1.40
33267;BMP180;19638;49.080;11.896;2023-04-06T00:12:43;96528.00;;;-1.40
33267;BMP180;19638;49.080;11.896;2023-04-06T00:16:49;96524.00;;;-1.50
33267;BMP180;19638;49.080;11.896;2023-04-06T00:20:52;96516.00;;;-1.50
33267;BMP180;19638;49.080;11.896;2023-04-06T00:24:55;96519.00;;;-1.50
33267;BMP180;19638;49.080;11.896;2023-04-06T00:29:00;96529.00;;;-1.50
33267;BMP180;19638;49.080;11.896;2023-04-06T00:33:08;96512.00;;;-1.60
33267;BMP180;19638;49.080;11.896;2023-04-06T00:37:11;96511.00;;;-1.60
33267;BMP180;19638;49.080;11.896;2023-04-06T00:41:19;96516.00;;;-1.60
33267;BMP180;19638;49.080;11.896;2023-04-06T00:45:28;96519.00;;;-1.70
33267;BMP180;19638;49.080;11.896;2023-04-06T00:49:32;96520.00;;;-1.70
33267;BMP180;19638;49.080;11.896;2023-04-06T00:53:36;96513.00;;;-1.60
33267;BMP180;19638;49.080;11.896;2023-04-06T00:57:39;96512.00;;;-1.50
33267;BMP180;19638;49.080;11.896;2023-04-06T01:01:51;96515.00;;;-1.40
33267;BMP180;19638;49.080;11.896;2023-04-06T01:05:56;96508.00;;;-1.50
33267;BMP180;19638;49.080;11.896;2023-04-06T01:10:03;96501.00;;;-1.50
33267;BMP180;19638;49.080;11.896;2023-04-06T01:14:07;96501.00;;;-1.50
33267;BMP180;19638;49.080;11.896;2023-04-06T01:18:11;96496.00;;;-1.50
33267;BMP180;19638;49.080;11.896;2023-04-06T01:22:18;96491.00;;;-1.60
33267;BMP180;19638;49.080;11.896;2023-04-06T01:26:21;96495.00;;;-1.70
33267;BMP180;19638;49.080;11.896;2023-04-06T01:30:24;96501.00;;;-1.80
33267;BMP180;19638;49.080;11.896;2023-04-06T01:34:27;96497.00;;;-1.80
33267;BMP180;19638;49.080;11.896;2023-04-06T01:38:37;96495.00;;;-1.80
33267;BMP180;19638;49.080;11.896;2023-04-06T01:42:40;96499.00;;;-1.80
33267;BMP180;19638;49.080;11.896;2023-04-06T01:46:45;96490.00;;;-1.80
33267;BMP180;19638;49.080;11.896;2023-04-06T01:50:50;96493.00;;;-1.70
33267;BMP180;19638;49.080;11.896;2023-04-06T01:54:57;96494.00;;;-1.60
33267;BMP180;19638;49.080;11.896;2023-04-06T01:59:03;96489.00;;;-1.60
33267;BMP180;19638;49.080;11.896;2023-04-06T02:03:09;96496.00;;;-1.50
33267;BMP180;19638;49.080;11.896;2023-04-06T02:07:12;96491.00;;;-1.50
33267;BMP180;19638;49.080;11.896;2023-04-06T02:11:16;96484.00;;;-1.50
33267;BMP180;19638;49.080;11.896;2023-04-06T02:15:30;96477.00;;;-1.50
33267;BMP180;19638;49.080;11.896;2023-04-06T02:19:33;96477.00;;;-1.50
33267;BMP180;19638;49.080;11.896;2023-04-06T02:23:36;96487.00;;;-1.50
33267;BMP180;19638;49.080;11.896;2023-04-06T02:27:40;96477.00;;;-1.60
33267;BMP180;19638;49.080;11.896;2023-04-06T02:31:46;96477.00;;;-1.60
33267;BMP180;19638;49.080;11.896;2023-04-06T02:35:52;96484.00;;;-1.60
33267;BMP180;19638;49.080;11.896;2023-04-06T02:39:55;96474.00;;;-1.60
33267;BMP180;19638;49.080;11.896;2023-04-06T02:44:05;96478.00;;;-1.60
33267;BMP180;19638;49.080;11.896;2023-04-06T02:48:16;96470.00;;;-1.60
33267;BMP180;19638;49.080;11.896;2023-04-06T02:52:19;96473.00;;;-1.70
33267;BMP180;19638;49.080;11.896;2023-04-06T02:56:23;96472.00;;;-1.70
33267;BMP180;19638;49.080;11.896;2023-04-06T03:04:42;96466.00;;;-1.90
33267;BMP180;19638;49.080;11.896;2023-04-06T03:08:45;96466.00;;;-2.00
33267;BMP180;19638;49.080;11.896;2023-04-06T03:12:48;96473.00;;;-2.10
33267;BMP180;19638;49.080;11.896;2023-04-06T03:16:51;96472.00;;;-2.10
33267;BMP180;19638;49.080;11.896;2023-04-06T03:20:57;96468.00;;;-2.20
33267;BMP180;19638;49.080;11.896;2023-04-06T03:25:07;96474.00;;;-2.20
33267;BMP180;19638;49.080;11.896;2023-04-06T03:29:10;96473.00;;;-2.30
33267;BMP180;19638;49.080;11.896;2023-04-06T03:33:13;96485.00;;;-2.40
33267;BMP180;19638;49.080;11.896;2023-04-06T03:37:20;96478.00;;;-2.50
33267;BMP180;19638;49.080;11.896;2023-04-06T03:41:25;96480.00;;;-2.70
33267;BMP180;19638;49.080;11.896;2023-04-06T03:45:28;96491.00;;;-2.70
33267;BMP180;19638;49.080;11.896;2023-04-06T03:49:33;96487.00;;;-2.70
33267;BMP180;19638;49.080;11.896;2023-04-06T03:53:42;96491.00;;;-2.70
33267;BMP180;19638;49.080;11.896;2023-04-06T03:57:45;96500.00;;;-2.80
33267;BMP180;19638;49.080;11.896;2023-04-06T04:01:52;96508.00;;;-2.80
33267;BMP180;19638;49.080;11.896;2023-04-06T04:05:58;96505.00;;;-2.80
33267;BMP180;19638;49.080;11.896;2023-04-06T04:10:06;96510.00;;;-2.80
33267;BMP180;19638;49.080;11.896;2023-04-06T04:14:14;96507.00;;;-2.80
33267;BMP180;19638;49.080;11.896;2023-04-06T04:18:21;96515.00;;;-2.80
33267;BMP180;19638;49.080;11.896;2023-04-06T04:22:27;96510.00;;;-2.90
33267;BMP180;19638;49.080;11.896;2023-04-06T04:26:32;96502.00;;;-2.90
33267;BMP180;19638;49.080;11.896;2023-04-06T04:30:40;96504.00;;;-3.00
33267;BMP180;19638;49.080;11.896;2023-04-06T04:34:44;96497.00;;;-2.90
33267;BMP180;19638;49.080;11.896;2023-04-06T04:38:50;96509.00;;;-3.00
33267;BMP180;19638;49.080;11.896;2023-04-06T04:42:55;96512.00;;;-3.10
33267;BMP180;19638;49.080;11.896;2023-04-06T04:47:00;96502.00;;;-3.00
33267;BMP180;19638;49.080;11.896;2023-04-06T04:51:07;96508.00;;;-3.00
33267;BMP180;19638;49.080;11.896;2023-04-06T04:55:13;96515.00;;;-3.00
33267;BMP180;19638;49.080;11.896;2023-04-06T04:59:24;96506.00;;;-2.90
33267;BMP180;19638;49.080;11.896;2023-04-06T05:03:27;96508.00;;;-2.90
33267;BMP180;19638;49.080;11.896;2023-04-06T05:07:30;96511.00;;;-2.80
33267;BMP180;19638;49.080;11.896;2023-04-06T05:11:33;96516.00;;;-2.80
33267;BMP180;19638;49.080;11.896;2023-04-06T05:15:38;96521.00;;;-2.70
33267;BMP180;19638;49.080;11.896;2023-04-06T05:19:43;96517.00;;;-2.60
33267;BMP180;19638;49.080;11.896;2023-04-06T05:23:47;96520.00;;;-2.60
33267;BMP180;19638;49.080;11.896;2023-04-06T05:27:51;96523.00;;;-2.50
33267;BMP180;19638;49.080;11.896;2023-04-06T05:31:56;96521.00;;;-2.50
33267;BMP180;19638;49.080;11.896;2023-04-06T05:35:59;96519.00;;;-2.30
33267;BMP180;19638;49.080;11.896;2023-04-06T05:40:04;96520.00;;;-2.10
33267;BMP180;19638;49.080;11.896;2023-04-06T05:44:08;96523.00;;;-1.80
33267;BMP180;19638;49.080;11.896;2023-04-06T05:48:16;96522.00;;;-1.60
33267;BMP180;19638;49.080;11.896;2023-04-06T05:52:24;96524.00;;;-1.40
33267;BMP180;19638;49.080;11.896;2023-04-06T05:56:29;96531.00;;;-1.20
33267;BMP180;19638;49.080;11.896;2023-04-06T06:00:33;96525.00;;;-1.00
33267;BMP180;19638;49.080;11.896;2023-04-06T06:04:37;96535.00;;;-0.70
33267;BMP180;19638;49.080;11.896;2023-04-06T06:08:40;96532.00;;;-0.50
33267;BMP180;19638;49.080;11.896;2023-04-06T06:12:43;96534.00;;;-0.30
33267;BMP180;19638;49.080;11.896;2023-04-06T06:16:49;96536.00;;;-0.10
33267;BMP180;19638;49.080;11.896;2023-04-06T06:20:56;96531.00;;;0.20
33267;BMP180;19638;49.080;11.896;2023-04-06T06:25:02;96542.00;;;0.50
33267;BMP180;19638;49.080;11.896;2023-04-06T06:29:07;96552.00;;;0.80
33267;BMP180;19638;49.080;11.896;2023-04-06T06:33:14;96550.00;;;1.10
33267;BMP180;19638;49.080;11.896;2023-04-06T06:37:19;96564.00;;;1.30
33267;BMP180;19638;49.080;11.896;2023-04-06T06:41:22;96552.00;;;1.60
33267;BMP180;19638;49.080;11.896;2023-04-06T06:45:26;96556.00;;;1.90
33267;BMP180;19638;49.080;11.896;2023-04-06T06:49:30;96564.00;;;2.10
33267;BMP180;19638;49.080;11.896;2023-04-06T06:53:35;96567.00;;;2.30
33267;BMP180;19638;49.080;11.896;2023-04-06T06:57:38;96567.00;;;2.50
33267;BMP180;19638;49.080;11.896;2023-04-06T07:01:44;96568.00;;;2.70
33267;BMP180;19638;49.080;11.896;2023-04-06T07:05:59;96563.00;;;2.90
33267;BMP180;19638;49.080;11.896;2023-04-06T07:10:04;96578.00;;;3.10
33267;BMP180;19638;49.080;11.896;2023-04-06T07:14:10;96563.00;;;3.30
33267;BMP180;19638;49.080;11.896;2023-04-06T07:18:13;96569.00;;;3.60
33267;BMP180;19638;49.080;11.896;2023-04-06T07:22:16;96563.00;;;3.90
33267;BMP180;19638;49.080;11.896;2023-04-06T07:26:21;96566.00;;;4.20
33267;BMP180;19638;49.080;11.896;2023-04-06T07:30:31;96570.00;;;4.60
33267;BMP180;19638;49.080;11.896;2023-04-06T07:34:37;96576.00;;;5.00
33267;BMP180;19638;49.080;11.896;2023-04-06T07:38:40;96589.00;;;5.40
33267;BMP180;19638;49.080;11.896;2023-04-06T07:42:45;96587.00;;;5.90
33267;BMP180;19638;49.080;11.896;2023-04-06T07:46:51;96587.00;;;6.40
33267;BMP180;19638;49.080;11.896;2023-04-06T07:51:02;96581.00;;;6.90
33267;BMP180;19638;49.080;11.896;2023-04-06T07:55:06;96581.00;;;7.40
33267;BMP180;19638;49.080;11.896;2023-04-06T07:59:13;96580.00;;;7.80
33267;BMP180;19638;49.080;11.896;2023-04-06T08:03:17;96583.00;;;8.30
33267;BMP180;19638;49.080;11.896;2023-04-06T08:07:22;96582.00;;;8.70
33267;BMP180;19638;49.080;11.896;2023-04-06T08:11:26;96583.00;;;9.10
33267;BMP180;19638;49.080;11.896;2023-04-06T08:15:33;96579.00;;;9.70
33267;BMP180;19638;49.080;11.896;2023-04-06T08:19:36;96586.00;;;10.60
33267;BMP180;19638;49.080;11.896;2023-04-06T08:23:41;96590.00;;;11.40
33267;BMP180;19638;49.080;11.896;2023-04-06T08:27:47;96587.00;;;12.00
33267;BMP180;19638;49.080;11.896;2023-04-06T08:31:52;96593.00;;;12.40
33267;BMP180;19638;49.080;11.896;2023-04-06T08:35:54;96594.00;;;12.70
33267;BMP180;19638;49.080;11.896;2023-04-06T08:39:58;96591.00;;;12.90
33267;BMP180;19638;49.080;11.896;2023-04-06T08:44:02;96593.00;;;13.30
33267;BMP180;19638;49.080;11.896;2023-04-06T08:48:08;96600.00;;;13.30
33267;BMP180;19638;49.080;11.896;2023-04-06T08:52:12;96588.00;;;13.60
33267;BMP180;19638;49.080;11.896;2023-04-06T08:56:17;96589.00;;;13.80
33267;BMP180;19638;49.080;11.896;2023-04-06T09:00:21;96594.00;;;14.20
33267;BMP180;19638;49.080;11.896;2023-04-06T09:04:27;96596.00;;;14.20
33267;BMP180;19638;49.080;11.896;2023-04-06T09:08:32;96595.00;;;14.30
33267;BMP180;19638;49.080;11.896;2023-04-06T09:12:37;96596.00;;;14.30
33267;BMP180;19638;49.080;11.896;2023-04-06T09:16:45;96589.00;;;14.50
33267;BMP180;19638;49.080;11.896;2023-04-06T09:20:58;96593.00;;;14.70
33267;BMP180;19638;49.080;11.896;2023-04-06T09:25:01;96593.00;;;14.70
33267;BMP180;19638;49.080;11.896;2023-04-06T09:29:05;96591.00;;;14.70
33267;BMP180;19638;49.080;11.896;2023-04-06T09:33:08;96595.00;;;14.90
33267;BMP180;19638;49.080;11.896;2023-04-06T09:37:14;96592.00;;;15.10
33267;BMP180;19638;49.080;11.896;2023-04-06T09:41:25;96588.00;;;15.40
33267;BMP180;19638;49.080;11.896;2023-04-06T09:45:31;96588.00;;;15.50
33267;BMP180;19638;49.080;11.896;2023-04-06T09:49:34;96585.00;;;15.80
33267;BMP180;19638;49.080;11.896;2023-04-06T09:53:42;96577.00;;;16.10
33267;BMP180;19638;49.080;11.896;2023-04-06T09:57:52;96585.00;;;15.90
33267;BMP180;19638;49.080;11.896;2023-04-06T10:01:57;96575.00;;;15.90
33267;BMP180;19638;49.080;11.896;2023-04-06T10:06:04;96583.00;;;16.00
33267;BMP180;19638;49.080;11.896;2023-04-06T10:10:13;96565.00;;;15.10
33267;BMP180;19638;49.080;11.896;2023-04-06T10:14:17;96564.00;;;15.20
33267;BMP180;19638;49.080;11.896;2023-04-06T10:18:25;96566.00;;;15.10
33267;BMP180;19638;49.080;11.896;2023-04-06T10:22:34;96556.00;;;14.50
33267;BMP180;19638;49.080;11.896;2023-04-06T10:26:40;96553.00;;;15.10
33267;BMP180;19638;49.080;11.896;2023-04-06T10:30:45;96554.00;;;15.90
33267;BMP180;19638;49.080;11.896;2023-04-06T10:34:51;96551.00;;;16.70
33267;BMP180;19638;49.080;11.896;2023-04-06T10:38:56;96557.00;;;17.20
33267;BMP180;19638;49.080;11.896;2023-04-06T10:43:09;96557.00;;;17.40
33267;BMP180;19638;49.080;11.896;2023-04-06T10:47:16;96554.00;;;17.60
33267;BMP180;19638;49.080;11.896;2023-04-06T10:51:24;96547.00;;;17.50
33267;BMP180;19638;49.080;11.896;2023-04-06T10:55:31;96548.00;;;17.40
33267;BMP180;19638;49.080;11.896;2023-04-06T10:59:42;96529.00;;;17.50
33267;BMP180;19638;49.080;11.896;2023-04-06T11:03:46;96533.00;;;17.40
33267;BMP180;19638;49.080;11.896;2023-04-06T11:07:49;96533.00;;;16.30
33267;BMP180;19638;49.080;11.896;2023-04-06T11:11:53;96532.00;;;16.10
33267;BMP180;19638;49.080;11.896;2023-04-06T11:16:00;96534.00;;;16.30
33267;BMP180;19638;49.080;11.896;2023-04-06T11:20:10;96533.00;;;16.00
33267;BMP180;19638;49.080;11.896;2023-04-06T11:24:16;96523.00;;;16.30
33267;BMP180;19638;49.080;11.896;2023-04-06T11:28:21;96511.00;;;15.90
33267;BMP180;19638;49.080;11.896;2023-04-06T11:32:26;96517.00;;;15.90
33267;BMP180;19638;49.080;11.896;2023-04-06T11:36:35;96512.00;;;15.60
33267;BMP180;19638;49.080;11.896;2023-04-06T11:40:38;96509.00;;;15.70
33267;BMP180;19638;49.080;11.896;2023-04-06T11:44:43;96501.00;;;15.50
33267;BMP180;19638;49.080;11.896;2023-04-06T11:48:52;96500.00;;;16.00
33267;BMP180;19638;49.080;11.896;2023-04-06T11:53:01;96495.00;;;16.40
33267;BMP180;19638;49.080;11.896;2023-04-06T11:57:04;96487.00;;;16.20
33267;BMP180;19638;49.080;11.896;2023-04-06T12:01:07;96495.00;;;15.20
33267;BMP180;19638;49.080;11.896;2023-04-06T12:05:14;96489.00;;;14.60
33267;BMP180;19638;49.080;11.896;2023-04-06T12:09:18;96477.00;;;14.30
33267;BMP180;19638;49.080;11.896;2023-04-06T12:13:21;96477.00;;;13.70
33267;BMP180;19638;49.080;11.896;2023-04-06T12:17:28;96469.00;;;13.30
33267;BMP180;19638;49.080;11.896;2023-04-06T12:21:33;96461.00;;;13.00
33267;BMP180;19638;49.080;11.896;2023-04-06T12:25:43;96466.00;;;13.10
33267;BMP180;19638;49.080;11.896;2023-04-06T12:29:48;96460.00;;;13.20
33267;BMP180;19638;49.080;11.896;2023-04-06T12:33:52;96465.00;;;13.30
33267;BMP180;19638;49.080;11.896;2023-04-06T12:37:59;96452.00;;;13.30
33267;BMP180;19638;49.080;11.896;2023-04-06T12:42:02;96450.00;;;13.50
33267;BMP180;19638;49.080;11.896;2023-04-06T12:46:06;96455.00;;;13.80
33267;BMP180;19638;49.080;11.896;2023-04-06T12:50:13;96457.00;;;14.20
33267;BMP180;19638;49.080;11.896;2023-04-06T12:54:20;96454.00;;;14.30
33267;BMP180;19638;49.080;11.896;2023-04-06T12:58:24;96438.00;;;14.10
33267;BMP180;19638;49.080;11.896;2023-04-06T13:02:28;96445.00;;;14.10
33267;BMP180;19638;49.080;11.896;2023-04-06T13:06:32;96445.00;;;14.10
33267;BMP180;19638;49.080;11.896;2023-04-06T13:10:42;96447.00;;;14.10
33267;BMP180;19638;49.080;11.896;2023-04-06T13:14:45;96444.00;;;14.10
33267;BMP180;19638;49.080;11.896;2023-04-06T13:18:55;96433.00;;;14.00
33267;BMP180;19638;49.080;11.896;2023-04-06T13:22:58;96435.00;;;13.90
33267;BMP180;19638;49.080;11.896;2023-04-06T13:27:02;96437.00;;;14.00
33267;BMP180;19638;49.080;11.896;2023-04-06T13:31:05;96428.00;;;14.10
33267;BMP180;19638;49.080;11.896;2023-04-06T13:35:12;96421.00;;;14.20
33267;BMP180;19638;49.080;11.896;2023-04-06T13:39:15;96423.00;;;14.40
33267;BMP180;19638;49.080;11.896;2023-04-06T13:43:19;96413.00;;;14.50
33267;BMP180;19638;49.080;11.896;2023-04-06T13:47:25;96421.00;;;14.70
33267;BMP180;19638;49.080;11.896;2023-04-06T13:51:29;96414.00;;;15.20
33267;BMP180;19638;49.080;11.896;2023-04-06T13:55:40;96408.00;;;15.50
33267;BMP180;19638;49.080;11.896;2023-04-06T13:59:45;96412.00;;;15.40
33267;BMP180;19638;49.080;11.896;2023-04-06T14:03:48;96406.00;;;15.50
33267;BMP180;19638;49.080;11.896;2023-04-06T14:07:51;96400.00;;;16.10
33267;BMP180;19638;49.080;11.896;2023-04-06T14:11:54;96399.00;;;16.70
33267;BMP180;19638;49.080;11.896;2023-04-06T14:16:00;96393.00;;;17.10
33267;BMP180;19638;49.080;11.896;2023-04-06T14:20:07;96395.00;;;17.40
33267;BMP180;19638;49.080;11.896;2023-04-06T14:24:24;96394.00;;;17.80
33267;BMP180;19638;49.080;11.896;2023-04-06T14:28:27;96390.00;;;17.90
33267;BMP180;19638;49.080;11.896;2023-04-06T14:32:32;96394.00;;;17.60
33267;BMP180;19638;49.080;11.896;2023-04-06T14:36:35;96395.00;;;17.80
33267;BMP180;19638;49.080;11.896;2023-04-06T14:40:51;96395.00;;;17.50
33267;BMP180;19638;49.080;11.896;2023-04-06T14:44:53;96393.00;;;17.50
33267;BMP180;19638;49.080;11.896;2023-04-06T14:49:01;96390.00;;;17.60
33267;BMP180;19638;49.080;11.896;2023-04-06T14:53:06;96380.00;;;17.70
33267;BMP180;19638;49.080;11.896;2023-04-06T14:57:09;96378.00;;;17.40
33267;BMP180;19638;49.080;11.896;2023-04-06T15:01:12;96371.00;;;17.40
33267;BMP180;19638;49.080;11.896;2023-04-06T15:05:19;96379.00;;;17.20
33267;BMP180;19638;49.080;11.896;2023-04-06T15:09:25;96376.00;;;16.90
33267;BMP180;19638;49.080;11.896;2023-04-06T15:13:31;96374.00;;;16.90
33267;BMP180;19638;49.080;11.896;2023-04-06T15:17:34;96369.00;;;17.00
33267;BMP180;19638;49.080;11.896;2023-04-06T15:21:42;96368.00;;;17.00
33267;BMP180;19638;49.080;11.896;2023-04-06T15:25:46;96369.00;;;17.00
33267;BMP180;19638;49.080;11.896;2023-04-06T15:29:50;96368.00;;;17.10
33267;BMP180;19638;49.080;11.896;2023-04-06T15:33:56;96369.00;;;17.00
33267;BMP180;19638;49.080;11.896;2023-04-06T15:38:00;96360.00;;;17.10
33267;BMP180;19638;49.080;11.896;2023-04-06T15:42:04;96372.00;;;16.80
33267;BMP180;19638;49.080;11.896;2023-04-06T15:46:10;96369.00;;;16.50
33267;BMP180;19638;49.080;11.896;2023-04-06T15:50:14;96374.00;;;16.40
33267;BMP180;19638;49.080;11.896;2023-04-06T15:54:18;96372.00;;;16.40
33267;BMP180;19638;49.080;11.896;2023-04-06T15:58:24;96374.00;;;16.40
33267;BMP180;19638;49.080;11.896;2023-04-06T16:02:36;96362.00;;;16.50
33267;BMP180;19638;49.080;11.896;2023-04-06T16:06:39;96368.00;;;16.60
33267;BMP180;19638;49.080;11.896;2023-04-06T16:10:44;96370.00;;;16.80
33267;BMP180;19638;49.080;11.896;2023-04-06T16:14:47;96366.00;;;17.00
33267;BMP180;19638;49.080;11.896;2023-04-06T16:18:51;96364.00;;;17.00
33267;BMP180;19638;49.080;11.896;2023-04-06T16:22:55;96376.00;;;17.30
33267;BMP180;19638;49.080;11.896;2023-04-06T16:26:59;96379.00;;;17.70
33267;BMP180;19638;49.080;11.896;2023-04-06T16:31:02;96376.00;;;17.90
33267;BMP180;19638;49.080;11.896;2023-04-06T16:35:05;96375.00;;;18.00
33267;BMP180;19638;49.080;11.896;2023-04-06T16:39:09;96372.00;;;18.20
33267;BMP180;19638;49.080;11.896;2023-04-06T16:43:22;96371.00;;;18.10
33267;BMP180;19638;49.080;11.896;2023-04-06T16:47:26;96378.00;;;17.80
33267;BMP180;19638;49.080;11.896;2023-04-06T16:51:29;96371.00;;;17.20
33267;BMP180;19638;49.080;11.896;2023-04-06T16:55:33;96370.00;;;16.20
33267;BMP180;19638;49.080;11.896;2023-04-06T16:59:42;96367.00;;;15.40
33267;BMP180;19638;49.080;11.896;2023-04-06T17:03:46;96371.00;;;14.70
33267;BMP180;19638;49.080;11.896;2023-04-06T17:07:50;96364.00;;;14.00
33267;BMP180;19638;49.080;11.896;2023-04-06T17:11:55;96368.00;;;13.40
33267;BMP180;19638;49.080;11.896;2023-04-06T17:16:01;96362.00;;;13.00
33267;BMP180;19638;49.080;11.896;2023-04-06T17:20:05;96362.00;;;12.60
33267;BMP180;19638;49.080;11.896;2023-04-06T17:24:09;96361.00;;;12.10
33267;BMP180;19638;49.080;11.896;2023-04-06T17:28:12;96365.00;;;11.60
33267;BMP180;19638;49.080;11.896;2023-04-06T17:32:21;96360.00;;;11.00
33267;BMP180;19638;49.080;11.896;2023-04-06T17:36:24;96368.00;;;10.50
33267;BMP180;19638;49.080;11.896;2023-04-06T17:40:30;96364.00;;;9.90
33267;BMP180;19638;49.080;11.896;2023-04-06T17:44:38;96359.00;;;9.40
33267;BMP180;19638;49.080;11.896;2023-04-06T17:48:44;96375.00;;;9.00
33267;BMP180;19638;49.080;11.896;2023-04-06T17:52:50;96365.00;;;8.50
33267;BMP180;19638;49.080;11.896;2023-04-06T17:56:56;96373.00;;;8.10
33267;BMP180;19638;49.080;11.896;2023-04-06T18:01:04;96376.00;;;7.70
33267;BMP180;19638;49.080;11.896;2023-04-06T18:05:12;96376.00;;;7.50
33267;BMP180;19638;49.080;11.896;2023-04-06T18:09:17;96384.00;;;7.20
33267;BMP180;19638;49.080;11.896;2023-04-06T18:13:21;96386.00;;;6.90
33267;BMP180;19638;49.080;11.896;2023-04-06T18:17:24;96386.00;;;6.60
33267;BMP180;19638;49.080;11.896;2023-04-06T18:21:28;96387.00;;;6.40
33267;BMP180;19638;49.080;11.896;2023-04-06T18:25:37;96384.00;;;6.10
33267;BMP180;19638;49.080;11.896;2023-04-06T18:29:40;96380.00;;;5.90
33267;BMP180;19638;49.080;11.896;2023-04-06T18:33:44;96385.00;;;5.70
33267;BMP180;19638;49.080;11.896;2023-04-06T18:37:51;96384.00;;;5.50
33267;BMP180;19638;49.080;11.896;2023-04-06T18:41:57;96389.00;;;5.30
33267;BMP180;19638;49.080;11.896;2023-04-06T18:46:00;96385.00;;;5.20
33267;BMP180;19638;49.080;11.896;2023-04-06T18:50:03;96384.00;;;5.10
33267;BMP180;19638;49.080;11.896;2023-04-06T18:54:11;96387.00;;;5.00
33267;BMP180;19638;49.080;11.896;2023-04-06T18:58:17;96397.00;;;5.00
33267;BMP180;19638;49.080;11.896;2023-04-06T19:02:20;96394.00;;;5.10
33267;BMP180;19638;49.080;11.896;2023-04-06T19:06:26;96402.00;;;5.00
33267;BMP180;19638;49.080;11.896;2023-04-06T19:10:38;96411.00;;;4.90
33267;BMP180;19638;49.080;11.896;2023-04-06T19:14:43;96406.00;;;4.70
33267;BMP180;19638;49.080;11.896;2023-04-06T19:18:52;96417.00;;;4.50
33267;BMP180;19638;49.080;11.896;2023-04-06T19:22:57;96405.00;;;4.20
33267;BMP180;19638;49.080;11.896;2023-04-06T19:27:02;96411.00;;;4.00
33267;BMP180;19638;49.080;11.896;2023-04-06T19:31:07;96403.00;;;3.80
33267;BMP180;19638;49.080;11.896;2023-04-06T19:35:11;96410.00;;;3.60
33267;BMP180;19638;49.080;11.896;2023-04-06T19:39:13;96401.00;;;3.50
33267;BMP180;19638;49.080;11.896;2023-04-06T19:43:19;96400.00;;;3.40
33267;BMP180;19638;49.080;11.896;2023-04-06T19:47:22;96399.00;;;3.20
33267;BMP180;19638;49.080;11.896;2023-04-06T19:51:24;96412.00;;;3.10
33267;BMP180;19638;49.080;11.896;2023-04-06T19:55:28;96404.00;;;3.10
33267;BMP180;19638;49.080;11.896;2023-04-06T19:59:32;96390.00;;;3.00
33267;BMP180;19638;49.080;11.896;2023-04-06T20:03:35;96395.00;;;2.90
33267;BMP180;19638;49.080;11.896;2023-04-06T20:07:39;96394.00;;;2.80
33267;BMP180;19638;49.080;11.896;2023-04-06T20:11:46;96395.00;;;2.70
33267;BMP180;19638;49.080;11.896;2023-04-06T20:15:50;96395.00;;;2.60
33267;BMP180;19638;49.080;11.896;2023-04-06T20:19:53;96394.00;;;2.40
33267;BMP180;19638;49.080;11.896;2023-04-06T20:23:56;96392.00;;;2.40
33267;BMP180;19638;49.080;11.896;2023-04-06T20:27:59;96398.00;;;2.40
33267;BMP180;19638;49.080;11.896;2023-04-06T20:32:11;96399.00;;;2.50
33267;BMP180;19638;49.080;11.896;2023-04-06T20:36:15;96398.00;;;2.50
33267;BMP180;19638;49.080;11.896;2023-04-06T20:40:21;96394.00;;;2.40
33267;BMP180;19638;49.080;11.896;2023-04-06T20:44:25;96392.00;;;2.30
33267;BMP180;19638;49.080;11.896;2023-04-06T20:48:33;96394.00;;;2.20
33267;BMP180;19638;49.080;11.896;2023-04-06T20:52:45;96385.00;;;2.10
33267;BMP180;19638;49.080;11.896;2023-04-06T20:56:50;96390.00;;;2.00
33267;BMP180;19638;49.080;11.896;2023-04-06T21:00:58;96386.00;;;1.90
33267;BMP180;19638;49.080;11.896;2023-04-06T21:05:07;96378.00;;;1.80
33267;BMP180;19638;49.080;11.896;2023-04-06T21:09:13;96385.00;;;1.60
33267;BMP180;19638;49.080;11.896;2023-04-06T21:13:25;96374.00;;;1.60
33267;BMP180;19638;49.080;11.896;2023-04-06T21:17:28;96386.00;;;1.50
33267;BMP180;19638;49.080;11.896;2023-04-06T21:21:34;96380.00;;;1.40
33267;BMP180;19638;49.080;11.896;2023-04-06T21:25:39;96384.00;;;1.30
33267;BMP180;19638;49.080;11.896;2023-04-06T21:29:42;96382.00;;;1.20
33267;BMP180;19638;49.080;11.896;2023-04-06T21:33:45;96381.00;;;1.20
33267;BMP180;19638;49.080;11.896;2023-04-06T21:37:49;96373.00;;;1.10
33267;BMP180;19638;49.080;11.896;2023-04-06T21:41:52;96367.00;;;1.10
33267;BMP180;19638;49.080;11.896;2023-04-06T21:45:55;96361.00;;;1.00
33267;BMP180;19638;49.080;11.896;2023-04-06T21:50:00;96362.00;;;1.00
33267;BMP180;19638;49.080;11.896;2023-04-06T21:54:04;96362.00;;;1.00
33267;BMP180;19638;49.080;11.896;2023-04-06T21:58:11;96370.00;;;0.90
33267;BMP180;19638;49.080;11.896;2023-04-06T22:02:14;96368.00;;;0.90
33267;BMP180;19638;49.080;11.896;2023-04-06T22:06:19;96355.00;;;0.80
33267;BMP180;19638;49.080;11.896;2023-04-06T22:10:25;96362.00;;;0.90
33267;BMP180;19638;49.080;11.896;2023-04-06T22:14:29;96358.00;;;0.90
33267;BMP180;19638;49.080;11.896;2023-04-06T22:18:33;96355.00;;;0.80
33267;BMP180;19638;49.080;11.896;2023-04-06T22:22:39;96353.00;;;0.80
33267;BMP180;19638;49.080;11.896;2023-04-06T22:26:47;96348.00;;;0.70
33267;BMP180;19638;49.080;11.896;2023-04-06T22:30:52;96351.00;;;0.70
33267;BMP180;19638;49.080;11.896;2023-04-06T22:34:55;96353.00;;;0.60
33267;BMP180;19638;49.080;11.896;2023-04-06T22:38:59;96344.00;;;0.60
33267;BMP180;19638;49.080;11.896;2023-04-06T22:43:07;96339.00;;;0.50
33267;BMP180;19638;49.080;11.896;2023-04-06T22:47:12;96345.00;;;0.40
33267;BMP180;19638;49.080;11.896;2023-04-06T22:51:18;96345.00;;;0.50
33267;BMP180;19638;49.080;11.896;2023-04-06T22:55:23;96343.00;;;0.60
33267;BMP180;19638;49.080;11.896;2023-04-06T22:59:30;96341.00;;;0.60
33267;BMP180;19638;49.080;11.896;2023-04-06T23:03:43;96343.00;;;0.60
33267;BMP180;19638;49.080;11.896;2023-04-06T23:07:46;96340.00;;;0.60
33267;BMP180;19638;49.080;11.896;2023-04-06T23:11:49;96337.00;;;0.50
33267;BMP180;19638;49.080;11.896;2023-04-06T23:15:53;96342.00;;;0.50
33267;BMP180;19638;49.080;11.896;2023-04-06T23:19:56;96344.00;;;0.50
33267;BMP180;19638;49.080;11.896;2023-04-06T23:23:59;96342.00;;;0.50